createdAt,value
2023-05-02T00:02:53.231Z,16.34
2023-05-02T00:07:55.183Z,16.25
2023-05-02T00:12:56.646Z,16.22
2023-05-02T00:17:58.123Z,16.09
2023-05-02T00:22:59.597Z,16.16
2023-05-02T00:28:01.011Z,16.11
2023-05-02T00:33:02.480Z,16.14
2023-05-02T00:38:03.857Z,16.15
2023-05-02T00:43:05.127Z,16.08
2023-05-02T00:48:08.806Z,16.06
2023-05-02T00:53:10.813Z,16.05
2023-05-02T00:58:16.428Z,16.03
2023-05-02T01:03:31.166Z,16.00
2023-05-02T01:08:40.173Z,15.93
2023-05-02T01:13:43.277Z,15.79
2023-05-02T01:18:47.118Z,15.70
2023-05-02T01:24:06.762Z,15.63
2023-05-02T01:29:10.186Z,15.46
2023-05-02T01:34:12.871Z,15.49
2023-05-02T01:39:27.215Z,15.37
2023-05-02T01:44:29.439Z,15.39
2023-05-02T01:49:34.123Z,15.36
2023-05-02T01:54:36.551Z,15.35
2023-05-02T01:59:40.902Z,15.36
2023-05-02T02:04:43.092Z,15.35
2023-05-02T02:09:44.557Z,15.30
2023-05-02T02:14:50.907Z,15.25
2023-05-02T02:19:56.091Z,15.22
2023-05-02T02:24:59.200Z,15.18
2023-05-02T02:30:00.909Z,15.15
2023-05-02T02:35:04.408Z,15.11
2023-05-02T02:40:19.011Z,14.99
2023-05-02T02:45:23.256Z,15.04
2023-05-02T02:50:31.275Z,15.03
2023-05-02T02:55:54.053Z,15.01
2023-05-02T03:00:56.163Z,14.92
2023-05-02T03:05:58.027Z,14.91
2023-05-02T03:10:59.347Z,14.86
2023-05-02T03:16:32.056Z,14.88
2023-05-02T03:21:34.416Z,14.83
2023-05-02T03:26:35.973Z,14.85
2023-05-02T03:31:37.430Z,14.88
2023-05-02T03:36:38.774Z,14.90
2023-05-02T03:41:40.136Z,14.91
2023-05-02T03:46:41.744Z,14.90
2023-05-02T03:51:43.599Z,14.92
2023-05-02T03:56:44.901Z,14.81
2023-05-02T04:01:50.407Z,14.82
2023-05-02T04:06:51.940Z,14.85
2023-05-02T04:11:53.850Z,14.80
2023-05-02T04:16:55.309Z,14.73
2023-05-02T04:21:56.632Z,14.69
2023-05-02T04:26:58.007Z,14.65
2023-05-02T04:31:59.360Z,14.70
2023-05-02T04:37:01.706Z,14.73
2023-05-02T04:42:03.944Z,14.75
2023-05-02T04:47:05.403Z,14.83
2023-05-02T04:52:06.785Z,14.64
2023-05-02T04:57:10.014Z,14.56
2023-05-02T05:02:12.829Z,14.72
2023-05-02T05:07:14.302Z,14.60
2023-05-02T05:12:15.651Z,14.51
2023-05-02T05:17:17.192Z,14.54
2023-05-02T05:22:20.303Z,14.59
2023-05-02T05:27:22.018Z,14.65
2023-05-02T05:32:24.249Z,14.63
2023-05-02T05:37:25.698Z,14.68
2023-05-02T05:42:27.174Z,14.62
2023-05-02T05:47:28.967Z,14.54
2023-05-02T05:52:30.630Z,14.63
2023-05-02T05:57:31.993Z,14.72
2023-05-02T06:02:33.449Z,14.62
2023-05-02T06:07:34.884Z,14.74
2023-05-02T06:12:36.445Z,14.79
2023-05-02T06:17:37.737Z,14.95
2023-05-02T06:22:40.446Z,14.93
2023-05-02T06:27:42.559Z,14.91
2023-05-02T06:32:44.162Z,14.89
2023-05-02T06:37:45.620Z,14.93
2023-05-02T06:42:47.199Z,14.90
2023-05-02T06:47:48.598Z,15.03
2023-05-02T06:52:49.950Z,15.08
2023-05-02T06:57:52.230Z,15.16
2023-05-02T07:02:54.747Z,15.25
2023-05-02T07:07:56.054Z,15.42
2023-05-02T07:12:57.533Z,15.55
2023-05-02T07:17:59.246Z,15.57
2023-05-02T07:23:00.685Z,15.62
2023-05-02T07:28:02.138Z,15.59
2023-05-02T07:33:03.738Z,15.51
2023-05-02T07:38:05.132Z,15.63
2023-05-02T07:43:07.483Z,15.58
2023-05-02T07:48:09.672Z,15.56
2023-05-02T07:53:11.719Z,15.42
2023-05-02T07:58:13.094Z,15.41
2023-05-02T08:03:14.644Z,15.51
2023-05-02T08:08:16.431Z,15.38
2023-05-02T08:13:18.069Z,15.28
2023-05-02T08:18:19.384Z,15.37
2023-05-02T08:23:21.054Z,15.31
2023-05-02T08:28:23.320Z,15.38
2023-05-02T08:33:24.670Z,15.55
2023-05-02T08:38:26.588Z,15.71
2023-05-02T08:43:29.461Z,15.79
2023-05-02T08:48:32.445Z,15.70
2023-05-02T08:53:37.344Z,15.65
2023-05-02T08:58:40.219Z,15.30
2023-05-02T09:03:44.564Z,15.16
2023-05-02T09:08:50.721Z,15.43
2023-05-02T09:13:52.568Z,15.75
2023-05-02T09:18:58.901Z,15.89
2023-05-02T09:24:00.429Z,16.02
2023-05-02T09:29:04.094Z,15.96
2023-05-02T09:34:13.925Z,16.06
2023-05-02T09:39:17.472Z,16.52
2023-05-02T09:44:21.785Z,16.76
2023-05-02T09:49:40.833Z,17.13
2023-05-02T09:54:42.406Z,17.70
2023-05-02T09:59:57.114Z,17.47
2023-05-02T10:05:01.726Z,17.69
2023-05-02T10:10:03.624Z,18.30
2023-05-02T10:15:07.979Z,18.80
2023-05-02T10:20:16.278Z,18.56
2023-05-02T10:25:18.355Z,17.76
2023-05-02T10:30:20.222Z,18.09
2023-05-02T10:35:24.256Z,18.40
2023-05-02T10:40:26.227Z,19.62
2023-05-02T10:45:35.304Z,19.71
2023-05-02T10:50:47.893Z,19.97
2023-05-02T10:56:11.541Z,18.92
2023-05-02T11:01:26.302Z,19.92
2023-05-02T11:06:34.063Z,21.25
2023-05-02T11:11:43.603Z,21.95
2023-05-02T11:17:11.552Z,21.79
2023-05-02T11:22:23.912Z,21.85
2023-05-02T11:27:31.201Z,22.16
2023-05-02T11:32:45.321Z,22.53
2023-05-02T11:37:59.979Z,23.33
2023-05-02T11:43:11.838Z,22.52
2023-05-02T11:48:16.398Z,21.71
2023-05-02T11:53:29.317Z,21.51
2023-05-02T11:58:33.278Z,21.31
2023-05-02T12:03:35.171Z,21.13
2023-05-02T12:08:37.303Z,20.85
2023-05-02T12:13:48.874Z,20.49
2023-05-02T12:18:50.673Z,20.17
2023-05-02T12:23:52.833Z,19.45
2023-05-02T12:28:55.171Z,19.64
2023-05-02T12:33:57.999Z,19.55
2023-05-02T12:39:00.438Z,19.46
2023-05-02T12:44:02.114Z,19.83
2023-05-02T12:49:12.367Z,20.49
2023-05-02T12:54:20.826Z,21.09
2023-05-02T12:59:29.991Z,21.48
2023-05-02T13:04:39.583Z,21.36
2023-05-02T13:09:41.209Z,21.28
2023-05-02T13:14:42.633Z,20.95
2023-05-02T13:19:50.400Z,20.66
2023-05-02T13:24:55.817Z,20.39
2023-05-02T13:29:57.384Z,20.07
2023-05-02T13:34:59.107Z,19.88
2023-05-02T13:40:00.873Z,19.41
2023-05-02T13:45:06.405Z,19.20
2023-05-02T13:50:08.494Z,18.77
2023-05-02T13:55:10.121Z,18.83
2023-05-02T14:00:12.020Z,18.96
2023-05-02T14:05:13.516Z,19.02
2023-05-02T14:10:14.948Z,19.18
2023-05-02T14:15:16.667Z,19.36
2023-05-02T14:20:18.060Z,19.50
2023-05-02T14:25:20.468Z,19.29
2023-05-02T14:30:21.767Z,19.33
2023-05-02T14:35:23.562Z,19.40
2023-05-02T14:40:24.841Z,19.25
2023-05-02T14:45:26.616Z,19.38
2023-05-02T14:50:27.994Z,19.38
2023-05-02T14:55:29.301Z,18.68
2023-05-02T15:00:30.653Z,18.79
2023-05-02T15:05:32.460Z,18.73
2023-05-02T15:10:39.982Z,18.59
2023-05-02T15:15:41.379Z,18.52
2023-05-02T15:20:44.429Z,18.50
2023-05-02T15:25:46.285Z,18.18
2023-05-02T15:30:49.285Z,18.14
2023-05-02T15:35:55.753Z,18.12
2023-05-02T15:40:59.282Z,18.11
2023-05-02T15:46:00.820Z,18.08
2023-05-02T15:51:03.014Z,18.12
2023-05-02T15:56:07.965Z,18.10
2023-05-02T16:01:09.718Z,18.30
2023-05-02T16:06:11.226Z,17.82
2023-05-02T16:11:12.601Z,17.85
2023-05-02T16:16:13.944Z,18.19
2023-05-02T16:21:15.548Z,18.31
2023-05-02T16:26:16.999Z,18.32
2023-05-02T16:31:18.356Z,18.12
2023-05-02T16:36:19.740Z,18.08
2023-05-02T16:41:21.393Z,17.98
2023-05-02T16:46:22.841Z,17.81
2023-05-02T16:51:24.165Z,17.69
2023-05-02T16:56:25.496Z,17.72
2023-05-02T17:01:27.204Z,17.67
2023-05-02T17:06:28.579Z,17.63
2023-05-02T17:11:29.995Z,17.60
2023-05-02T17:16:31.385Z,17.52
2023-05-02T17:21:33.724Z,17.49
2023-05-02T17:26:35.455Z,17.42
2023-05-02T17:31:37.829Z,17.34
2023-05-02T17:36:42.165Z,17.24
2023-05-02T17:41:43.569Z,17.18
2023-05-02T17:46:44.940Z,16.91
2023-05-02T17:51:46.575Z,16.78
2023-05-02T17:56:47.973Z,16.58
2023-05-02T18:01:52.796Z,16.47
2023-05-02T18:06:54.594Z,16.24
2023-05-02T18:11:58.301Z,16.11
2023-05-02T18:16:59.632Z,16.01
2023-05-02T18:22:01.106Z,15.89
2023-05-02T18:27:03.166Z,15.74
2023-05-02T18:32:04.603Z,15.66
2023-05-02T18:37:06.840Z,15.47
2023-05-02T18:42:08.300Z,15.46
2023-05-02T18:47:09.766Z,15.35
2023-05-02T18:52:11.877Z,15.19
2023-05-02T18:57:13.272Z,15.09
2023-05-02T19:02:15.627Z,15.00
2023-05-02T19:07:16.929Z,14.91
2023-05-02T19:12:18.344Z,14.76
2023-05-02T19:17:19.878Z,14.58
2023-05-02T19:22:22.194Z,14.47
2023-05-02T19:27:23.695Z,14.36
2023-05-02T19:32:25.303Z,14.26
2023-05-02T19:37:29.597Z,14.15
2023-05-02T19:42:30.828Z,14.02
2023-05-02T19:47:32.649Z,14.00
2023-05-02T19:52:34.378Z,13.94
2023-05-02T19:57:36.244Z,13.83
2023-05-02T20:02:37.698Z,13.70
2023-05-02T20:07:39.741Z,13.60
2023-05-02T20:12:44.847Z,13.51
2023-05-02T20:17:47.485Z,13.50
2023-05-02T20:22:48.860Z,13.39
2023-05-02T20:27:50.901Z,13.18
2023-05-02T20:32:52.594Z,13.14
2023-05-02T20:37:54.104Z,13.13
2023-05-02T20:42:55.483Z,13.09
2023-05-02T20:47:56.891Z,13.02
2023-05-02T20:52:58.225Z,12.97
2023-05-02T20:57:59.511Z,12.92
2023-05-02T21:03:00.998Z,12.91
2023-05-02T21:08:02.424Z,12.76
2023-05-02T21:13:03.754Z,12.66
2023-05-02T21:18:05.863Z,12.59
2023-05-02T21:23:11.023Z,12.53
2023-05-02T21:28:12.619Z,12.45
2023-05-02T21:33:17.363Z,12.33
2023-05-02T21:38:18.672Z,12.34
2023-05-02T21:43:20.023Z,12.23
2023-05-02T21:48:21.596Z,12.18
2023-05-02T21:53:23.765Z,12.09
2023-05-02T21:58:25.251Z,12.04
2023-05-02T22:03:27.622Z,11.96
2023-05-02T22:08:29.009Z,11.97
2023-05-02T22:13:30.358Z,11.71
2023-05-02T22:18:31.684Z,11.71
2023-05-02T22:23:32.986Z,11.70
2023-05-02T22:28:35.170Z,11.66
2023-05-02T22:33:37.156Z,11.53
2023-05-02T22:38:41.472Z,11.42
2023-05-02T22:43:42.796Z,11.36
2023-05-02T22:48:44.138Z,11.29
2023-05-02T22:53:45.663Z,11.22
2023-05-02T22:58:49.703Z,11.19
2023-05-02T23:03:51.783Z,11.14
2023-05-02T23:08:53.230Z,11.09
2023-05-02T23:13:54.537Z,11.08
2023-05-02T23:18:55.960Z,11.00
2023-05-02T23:23:57.306Z,10.94
2023-05-02T23:28:58.662Z,10.88
2023-05-02T23:34:00.542Z,10.89
2023-05-02T23:39:02.483Z,10.68
2023-05-02T23:44:04.666Z,10.64
2023-05-02T23:49:05.995Z,10.47
2023-05-02T23:54:07.282Z,10.54
2023-05-02T23:59:08.728Z,10.48
